To NAV CANADA Home Page Login to a new session Search on AWWS site Feedback and Comments Disclaimer Vers la page française équivalente Tips FAQ What's new on the site To the Forecasts and Observations / NOTAM section To "File a Flight Plan" website Publications and other links Update of the User's profile FIC Telephone Numbers My Weather Data Folder Route Weather Data Regional Weather Data Local Weather Data To the Forecasts and Observations / NOTAM section
Request Generated 04/27/2015 at 20:41:21 UTC . Weather information available at that time is displayed.

METAR/TAF

GREENWOOD/NS    

METAR CYZX 272000Z 03013KT 8SM -RA BKN014 OVC018 03/02 A2939 RMK SF6SC2 WNDY HILL 03015G24KT SLP952=
METAR CYZX 271900Z 03014KT 12SM -RA BKN014 OVC020 03/02 A2937 RMK SF5SC3 WNDY HILL 04016G25KT SLP946=
METAR CYZX 271800Z 03015G20KT 8SM -RA OVC014 04/03 A2936 RMK SF8 WNDY HILL 05013G20KT CIG RAG SLP944=

TAF CYZX 271730Z 2718/2818 03010G20KT P6SM -SHRA SCT005 OVC015 TEMPO
2718/2808 3SM -SHRASN BR OVC005
FM280800 35010KT P6SM OVC008 TEMPO 2808/2814 SCT008 OVC015
FM281400 33008KT 4SM -RASN BR OVC010 TEMPO 2814/2818 P6SM -RA
SCT010 OVC020
RMK NXT FCST BY 280000Z=
Your time UTC time
Weather data provided by Environment Canada and NAV CANADA